Flight Track Log - Related Links

Times and Time Zones

All times are in EDT time to prevent confusion due to time zone crossing. See the BLF1703 flight status page for this flight to view local times or setup timezone preferences in your user account.

Time Position Orientation Groundspeed Altitude Reporting Facility
EDT Latitude Longitude Course Direction KTS MPH feet Rate Location/Type
Wed 02:50:00 PM 60.1198 24.2939 240° Southwest  Level Estimated
Wed 02:51:00 PM 60.0699 24.1278 239° Southwest  Level Estimated
Wed 02:52:00 PM 60.0198 23.9622 239° Southwest  Level Estimated
Wed 02:53:00 PM 59.9695 23.7971 239° Southwest  Level Estimated
Wed 02:54:00 PM 59.9190 23.6325 239° Southwest  Level Estimated
Wed 02:55:00 PM 59.8683 23.4684 238° Southwest  Level Estimated
Wed 02:56:00 PM 59.8174 23.3048 238° Southwest  Level Estimated
Wed 02:57:00 PM 59.7663 23.1418 238° Southwest  Level Estimated
Wed 02:58:00 PM 59.7150 22.9792 238° Southwest  Level Estimated
Wed 02:59:00 PM 59.6635 22.8171 238° Southwest  Level Estimated
Wed 03:00:00 PM 59.6118 22.6555 238° Southwest  Level Estimated
Wed 03:01:00 PM 59.5598 22.4944 238° Southwest  Level Estimated
Wed 03:02:00 PM 59.5077 22.3338 237° Southwest  Level Estimated
Wed 03:03:00 PM 59.4554 22.1737 237° Southwest  Level Estimated
Wed 03:04:00 PM 59.4029 22.0141 237° Southwest  Level Estimated
Wed 03:05:00 PM 59.3502 21.8550 237° Southwest  Level Estimated
Wed 03:06:00 PM 59.2973 21.6963 237° Southwest  Level Estimated
Wed 03:07:00 PM 59.2443 21.5382 237° Southwest  Level Estimated
Wed 03:08:00 PM 59.1910 21.3806 237° Southwest  Level Estimated
Wed 03:09:00 PM 59.1375 21.2234 236° Southwest  Level Estimated
Wed 03:10:00 PM 59.0839 21.0668 236° Southwest  Level Estimated
Wed 03:11:00 PM 59.0300 20.9106 236° Southwest  Level Estimated
Wed 03:12:00 PM 58.9760 20.7550 236° Southwest  Level Estimated
Wed 03:13:00 PM 58.9218 20.5998 236° Southwest  Level Estimated
Wed 03:14:00 PM 58.8674 20.4451 236° Southwest  Level Estimated
Wed 03:15:00 PM 58.8128 20.2909 236° Southwest  Level Estimated
Wed 03:16:00 PM 58.7580 20.1371 236° Southwest  Level Estimated
Wed 03:17:00 PM 58.7031 19.9839 235° Southwest  Level Estimated
Wed 03:18:00 PM 58.6480 19.8312 235° Southwest  Level Estimated
Wed 03:19:00 PM 58.5927 19.6789 235° Southwest  Level Estimated
Wed 03:20:00 PM 58.5372 19.5271 235° Southwest  Level Estimated
Wed 03:21:00 PM 58.4815 19.3758 235° Southwest  Level Estimated
Wed 03:22:00 PM 58.4257 19.2250 235° Southwest  Level Estimated
Wed 03:23:00 PM 58.3696 19.0746 235° Southwest  Level Estimated
Wed 03:24:00 PM 58.3134 18.9247 235° Southwest  Level Estimated
Wed 03:25:00 PM 58.2571 18.7753 234° Southwest  Level Estimated
Wed 03:26:00 PM 58.2005 18.6264 234° Southwest  Level Estimated
Wed 03:27:00 PM 58.1438 18.4779 234° Southwest  Level Estimated
Wed 03:28:00 PM 58.0869 18.3300 234° Southwest  Level Estimated
Wed 03:29:00 PM 58.0298 18.1825 234° Southwest  Level Estimated
Wed 03:30:00 PM 57.9726 18.0354 234° Southwest  Level Estimated
Wed 03:31:00 PM 57.9152 17.8888 234° Southwest  Level Estimated
Wed 03:32:00 PM 57.8576 17.7428 234° Southwest  Level Estimated
Wed 03:33:00 PM 57.7999 17.5971 233° Southwest  Level Estimated
Wed 03:34:00 PM 57.7420 17.4520 233° Southwest  Level Estimated
Wed 03:35:00 PM 57.6839 17.3073 233° Southwest  Level Estimated
Wed 03:36:00 PM 57.6257 17.1630 233° Southwest  Level Estimated
Wed 03:37:00 PM 57.5673 17.0193 233° Southwest  Level Estimated
Wed 03:38:00 PM 57.5087 16.8759 233° Southwest  Level Estimated
Wed 03:39:00 PM 57.4500 16.7331 233° Southwest  Level Estimated
Wed 03:40:00 PM 57.3911 16.5907 233° Southwest  Level Estimated
Wed 03:41:00 PM 57.3321 16.4488 232° Southwest  Level Estimated
Wed 03:42:00 PM 57.2729 16.3073 232° Southwest  Level Estimated
Wed 03:43:00 PM 57.2135 16.1663 232° Southwest  Level Estimated
Wed 03:44:00 PM 57.1540 16.0257 232° Southwest  Level Estimated
Wed 03:45:00 PM 57.0943 15.8856 232° Southwest  Level Estimated
Wed 03:46:00 PM 57.0345 15.7459 232° Southwest  Level Estimated
Wed 03:47:00 PM 56.9745 15.6067 232° Southwest  Level Estimated
Wed 03:48:00 PM 56.9144 15.4679 232° Southwest  Level Estimated
Wed 03:49:00 PM 56.8541 15.3296 231° Southwest  Level Estimated
Wed 03:50:00 PM 56.7937 15.1917 231° Southwest  Level Estimated
Wed 03:51:00 PM 56.7331 15.0543 231° Southwest  Level Estimated
Wed 03:52:00 PM 56.6723 14.9173 231° Southwest  Level Estimated
Wed 03:53:00 PM 56.6114 14.7807 231° Southwest  Level Estimated
Wed 03:54:00 PM 56.5504 14.6446 231° Southwest  Level Estimated
Wed 03:55:00 PM 56.4892 14.5090 231° Southwest  Level Estimated
Wed 03:56:00 PM 56.4278 14.3737 231° Southwest  Level Estimated
Wed 03:57:00 PM 56.3664 14.2389 231° Southwest  Level Estimated
Wed 03:58:00 PM 56.3047 14.1046 230° Southwest  Level Estimated
Wed 03:59:00 PM 56.2430 13.9706 230° Southwest  Level Estimated
Wed 04:00:00 PM 56.1810 13.8371 230° Southwest  Level Estimated
Wed 04:01:00 PM 56.1190 13.7041 230° Southwest  Level Estimated
Wed 04:02:00 PM 56.0568 13.5714 230° Southwest  Level Estimated
Wed 04:03:00 PM 55.9944 13.4392 230° Southwest  Level Estimated
Wed 04:04:00 PM 55.9319 13.3074 230° Southwest  Level Estimated
Wed 04:05:00 PM 55.8693 13.1761 230° Southwest  Level Estimated
Wed 04:06:00 PM 55.8065 13.0451 230° Southwest  Level Estimated
Wed 04:07:00 PM 55.7436 12.9146 229° Southwest  Level Estimated
Wed 04:08:00 PM 55.6805 12.7845 229° Southwest  Level Estimated
Wed 04:09:00 PM 55.6179 12.6560 229° Southwest  Level Estimated
Wed 04:10:00 PM 55.6179 12.6560 159° South  Level Estimated
Wed 04:11:00 PM 55.6179 12.6560 159° South  Level Estimated
Wed 04:12:00 PM 55.6179 12.6560 159° South  Level Estimated
Wed 04:13:00 PM 55.6179 12.6560 159° South  Level Estimated
Wed 04:14:00 PM 55.6179 12.6560 159° South  Level Estimated
Wed 04:15:00 PM 55.6179 12.6560 159° South  Level Estimated
Wed 04:16:00 PM 55.6179 12.6560 159° South  Level Estimated
Wed 04:17:00 PM 55.6179 12.6560 159° South  Level Estimated
Wed 04:18:00 PM 55.6179 12.6560 159° South  Level Estimated
Wed 04:19:00 PM 55.6179 12.6560 159° South  Level Estimated
Wed 04:20:00 PM 55.6179 12.6560 159° South  Level Estimated
Wed 04:21:00 PM 55.6179 12.6560 159° South  Level Estimated

Login

Don't have an account? Register now (free) for customized features, flight alerts, and more!